Time;durP1;ratioP1;P1;durP2;ratioP2;P2;SDS_P1;SDS_P2;PMS_P1;PMS_P2;Temp;Humidity;BMP_temperature;BMP_pressure;BME280_temperature;BME280_humidity;BME280_pressure;Samples;Min_cycle;Max_cycle;Signal;HPM_P1;HPM_P2
2023/08/30 00:01:57;;;;;;;6.93;4.90;;;;;;;25.77;47.73;98269.53;4962402;28;20540;-89
2023/08/30 00:04:22;;;;;;;9.15;4.88;;;;;;;25.57;48.09;98267.22;4946452;28;20050;-89
2023/08/30 00:06:48;;;;;;;6.88;4.38;;;;;;;25.36;50.03;98261.75;4946069;28;20473;-89
2023/08/30 00:09:14;;;;;;;5.60;4.57;;;;;;;25.08;49.70;98274.28;4952358;28;20030;-87
2023/08/30 00:11:49;;;;;;;9.68;5.07;;;;;;;25.01;49.52;98260.53;4955236;28;20085;-88
2023/08/30 00:14:15;;;;;;;7.22;4.32;;;;;;;25.00;49.74;98262.47;4975922;28;20033;-88
2023/08/30 00:16:40;;;;;;;7.80;4.75;;;;;;;24.92;49.75;98260.13;4964057;28;20046;-88
2023/08/30 00:19:06;;;;;;;9.75;4.60;;;;;;;24.98;49.67;98267.59;4966084;28;20054;-88
2023/08/30 00:21:31;;;;;;;7.13;4.70;;;;;;;25.05;49.08;98269.59;4966366;28;20121;-88
2023/08/30 00:23:57;;;;;;;11.65;5.05;;;;;;;25.06;48.68;98259.34;4962142;28;20042;-88
2023/08/30 00:26:22;;;;;;;8.98;5.00;;;;;;;24.92;49.47;98254.59;4962503;28;20038;-88
2023/08/30 00:28:48;;;;;;;8.15;4.93;;;;;;;24.86;50.08;98258.94;4945559;28;20034;-88
2023/08/30 00:31:13;;;;;;;8.88;4.97;;;;;;;24.68;49.51;98251.44;4962258;28;20089;-88
2023/08/30 00:33:39;;;;;;;13.18;5.18;;;;;;;24.60;50.23;98252.59;4978349;28;20081;-88
2023/08/30 00:36:04;;;;;;;7.63;4.97;;;;;;;24.59;48.24;98248.25;4955628;28;20037;-88
2023/08/30 00:38:32;;;;;;;11.52;5.28;;;;;;;24.69;47.75;98247.50;4952675;28;20031;-89
2023/08/30 00:40:58;;;;;;;9.65;4.70;;;;;;;24.65;48.32;98251.41;4953001;28;20091;-88
2023/08/30 00:43:23;;;;;;;9.25;5.30;;;;;;;24.71;48.18;98269.13;4954089;28;20516;-87
2023/08/30 00:45:51;;;;;;;12.95;5.32;;;;;;;24.59;49.68;98270.28;4961799;28;20567;-88
2023/08/30 00:48:18;;;;;;;9.70;5.10;;;;;;;24.40;50.12;98263.13;4964446;28;20031;-88
2023/08/30 00:50:43;;;;;;;8.68;4.78;;;;;;;24.41;48.79;98283.97;4967255;28;20026;-88
2023/08/30 00:53:11;;;;;;;9.95;5.05;;;;;;;24.41;48.36;98268.25;4965603;28;20026;-88
2023/08/30 00:55:37;;;;;;;9.63;4.65;;;;;;;24.50;48.74;98278.13;4964330;28;20038;-88
2023/08/30 00:58:03;;;;;;;11.65;4.47;;;;;;;24.43;48.59;98284.38;4964087;28;20381;-89
2023/08/30 01:00:29;;;;;;;8.30;4.53;;;;;;;24.40;49.07;98280.44;4963600;28;20409;-88
2023/08/30 01:02:56;;;;;;;14.32;4.78;;;;;;;24.28;49.48;98279.97;4964565;28;20121;-88
2023/08/30 01:05:22;;;;;;;10.25;5.18;;;;;;;24.30;50.22;98281.19;4964073;28;20069;-88
2023/08/30 01:07:49;;;;;;;7.63;4.40;;;;;;;24.38;48.78;98290.22;4980101;28;20492;-88
2023/08/30 01:10:14;;;;;;;11.52;4.28;;;;;;;24.32;49.32;98298.09;4960887;28;20050;-88
2023/08/30 01:12:48;;;;;;;12.10;4.72;;;;;;;24.37;49.40;98297.72;4950001;28;20052;-88
2023/08/30 01:15:20;;;;;;;8.45;4.82;;;;;;;24.43;49.17;98313.84;4986973;28;20030;-88
2023/08/30 01:17:48;;;;;;;9.43;4.80;;;;;;;24.30;50.38;98294.94;4971454;28;20062;-88
2023/08/30 01:20:16;;;;;;;8.15;4.78;;;;;;;24.31;49.91;98295.72;4947135;28;20030;-88
2023/08/30 01:23:02;;;;;;;9.75;5.50;;;;;;;24.32;51.32;98319.28;4963617;28;20067;-88
2023/08/30 01:25:32;;;;;;;6.57;4.70;;;;;;;24.22;51.14;98312.59;4980287;28;20026;-89
2023/08/30 01:27:57;;;;;;;11.00;5.53;;;;;;;24.02;52.67;98309.34;4980062;28;20089;-89
2023/08/30 01:30:23;;;;;;;6.70;4.82;;;;;;;23.95;53.33;98312.06;4948956;28;20026;-88
2023/08/30 01:32:48;;;;;;;8.88;5.50;;;;;;;23.92;52.82;98316.34;4948258;28;20041;-89
2023/08/30 01:35:17;;;;;;;12.10;5.25;;;;;;;23.92;52.68;98316.34;4943176;28;20513;-88
2023/08/30 01:37:45;;;;;;;8.75;5.10;;;;;;;23.95;52.86;98323.84;4944379;28;20035;-89
2023/08/30 01:40:11;;;;;;;9.63;5.40;;;;;;;23.82;53.40;98313.53;4944119;28;20393;-89
2023/08/30 01:42:36;;;;;;;12.05;5.35;;;;;;;23.72;53.22;98309.50;4948240;28;20101;-89
2023/08/30 01:45:02;;;;;;;7.47;5.22;;;;;;;23.72;52.86;98318.56;4944970;28;20042;-88
2023/08/30 01:47:28;;;;;;;10.70;5.90;;;;;;;23.67;52.75;98298.88;4940900;28;20034;-87
2023/08/30 01:49:54;;;;;;;9.32;4.90;;;;;;;23.71;53.34;98318.94;4945431;28;20038;-88
2023/08/30 01:52:19;;;;;;;9.05;5.15;;;;;;;23.67;53.10;98332.63;4956581;28;20069;-88
2023/08/30 01:54:45;;;;;;;8.52;5.05;;;;;;;23.64;53.17;98325.16;4947106;28;20022;-88
2023/08/30 01:57:10;;;;;;;11.20;5.68;;;;;;;23.43;53.51;98298.31;4970684;28;20022;-88
2023/08/30 01:59:36;;;;;;;8.10;4.97;;;;;;;23.57;52.83;98303.13;4948125;28;20089;-89
2023/08/30 02:02:03;;;;;;;11.48;4.85;;;;;;;23.53;53.22;98318.78;4945654;28;20062;-87
2023/08/30 02:04:33;;;;;;;8.15;5.43;;;;;;;23.66;53.44;98328.31;4939116;28;20037;-88
2023/08/30 02:07:06;;;;;;;11.25;5.45;;;;;;;23.61;53.37;98325.91;4946309;28;20010;-88
2023/08/30 02:09:41;;;;;;;11.00;5.75;;;;;;;23.54;53.95;98331.38;4966954;28;20032;-88
2023/08/30 02:12:08;;;;;;;11.73;5.30;;;;;;;23.62;53.16;98326.72;4960471;28;20031;-88
2023/08/30 02:14:35;;;;;;;12.68;5.05;;;;;;;23.70;53.01;98331.91;4928298;28;20038;-88
2023/08/30 02:17:01;;;;;;;8.85;5.30;;;;;;;23.45;53.79;98312.47;4947791;28;20031;-88
2023/08/30 02:19:26;;;;;;;8.30;5.03;;;;;;;23.57;53.53;98322.34;4946544;28;20042;-88
2023/08/30 02:21:52;;;;;;;11.10;4.65;;;;;;;23.60;53.00;98319.63;4961015;28;20493;-89
2023/08/30 02:24:17;;;;;;;8.90;4.70;;;;;;;23.71;52.59;98327.97;4968390;28;20023;-88
2023/08/30 02:26:43;;;;;;;7.18;4.60;;;;;;;23.83;52.11;98329.66;4966627;28;20416;-89
2023/08/30 02:29:13;;;;;;;7.22;5.03;;;;;;;23.72;51.87;98335.06;4976372;28;20033;-88
2023/08/30 02:31:38;;;;;;;11.27;5.18;;;;;;;23.75;51.92;98334.28;4955831;28;20119;-88
2023/08/30 02:34:04;;;;;;;9.45;5.13;;;;;;;23.76;52.09;98337.81;4963119;28;20058;-89
2023/08/30 02:36:29;;;;;;;11.80;5.18;;;;;;;23.79;52.27;98334.34;4960851;28;20030;-88
2023/08/30 02:38:55;;;;;;;9.60;4.53;;;;;;;23.82;52.25;98336.31;4956735;28;20034;-88
2023/08/30 02:41:20;;;;;;;7.70;5.28;;;;;;;23.74;52.32;98321.72;4952097;28;20026;-88
2023/08/30 02:43:49;;;;;;;14.00;5.35;;;;;;;23.77;52.24;98320.97;4962587;28;20034;-88
2023/08/30 02:46:14;;;;;;;7.75;5.18;;;;;;;23.74;52.15;98321.72;4956650;28;20030;-89
2023/08/30 02:48:39;;;;;;;9.88;4.70;;;;;;;23.73;52.51;98313.84;4972653;28;20085;-89
2023/08/30 02:51:05;;;;;;;8.50;5.82;;;;;;;23.65;52.89;98310.25;4965816;28;20022;-89
2023/08/30 02:53:34;;;;;;;10.52;5.03;;;;;;;23.71;52.99;98310.69;4995047;28;20034;-89
2023/08/30 02:55:59;;;;;;;8.32;5.03;;;;;;;23.55;53.12;98299.97;4967036;28;20010;-90
2023/08/30 02:58:25;;;;;;;8.75;5.10;;;;;;;23.65;53.22;98314.97;4964012;28;20030;-87
2023/08/30 03:00:50;;;;;;;7.20;4.63;;;;;;;23.48;53.28;98306.19;4967036;28;20022;-88
2023/08/30 03:03:18;;;;;;;12.02;5.85;;;;;;;23.37;54.76;98313.59;4966839;28;20045;-88
2023/08/30 03:05:44;;;;;;;10.18;7.13;;;;;;;23.10;55.59;98305.50;4965882;28;20171;-88
2023/08/30 03:08:12;;;;;;;12.30;6.10;;;;;;;23.17;55.74;98313.00;4960490;28;20038;-88
2023/08/30 03:10:37;;;;;;;11.68;7.00;;;;;;;23.15;55.95;98324.38;4964315;28;20478;-88
2023/08/30 03:13:03;;;;;;;14.07;6.72;;;;;;;23.12;56.40;98313.38;4962790;28;20026;-89
2023/08/30 03:15:32;;;;;;;12.98;7.13;;;;;;;22.80;56.45;98291.84;4957589;28;20030;-89
2023/08/30 03:17:57;;;;;;;10.77;6.60;;;;;;;22.76;57.52;98299.25;4963125;28;20111;-89
2023/08/30 03:20:23;;;;;;;17.50;6.88;;;;;;;22.68;57.72;98289.34;4966729;28;20093;-87
2023/08/30 03:22:48;;;;;;;17.30;6.72;;;;;;;22.57;57.63;98281.78;4967130;28;20037;-89
2023/08/30 03:25:14;;;;;;;10.73;6.72;;;;;;;22.62;58.01;98299.09;4967134;28;20097;-88
2023/08/30 03:27:39;;;;;;;12.95;6.63;;;;;;;22.50;58.19;98295.44;4966182;28;20033;-89
2023/08/30 03:30:06;;;;;;;11.73;6.63;;;;;;;22.48;58.74;98303.25;4963281;28;20023;-89
2023/08/30 03:32:32;;;;;;;9.93;6.07;;;;;;;22.39;58.74;98300.81;4957136;28;20026;-89
2023/08/30 03:34:58;;;;;;;13.10;6.38;;;;;;;22.39;58.33;98300.81;4965420;28;20117;-89
2023/08/30 03:37:23;;;;;;;10.00;6.03;;;;;;;22.43;58.43;98305.53;4966051;28;20056;-88
2023/08/30 03:39:49;;;;;;;13.90;6.65;;;;;;;22.44;57.90;98301.66;4963339;28;20042;-89
2023/08/30 03:42:14;;;;;;;14.07;6.70;;;;;;;22.42;58.05;98306.72;4947262;28;20050;-88
2023/08/30 03:44:40;;;;;;;12.70;6.90;;;;;;;22.49;57.91;98315.81;4948101;28;20030;-89
2023/08/30 03:47:05;;;;;;;13.98;6.82;;;;;;;22.49;58.32;98304.03;4947525;28;20042;-88
2023/08/30 03:49:31;;;;;;;13.25;7.25;;;;;;;22.47;58.33;98309.91;4945782;28;20034;-89
2023/08/30 03:51:59;;;;;;;12.63;6.45;;;;;;;22.67;58.01;98324.25;4947006;28;20089;-90
2023/08/30 03:54:25;;;;;;;9.60;6.88;;;;;;;22.62;57.75;98318.28;4947630;28;20118;-90
2023/08/30 03:56:50;;;;;;;19.38;7.32;;;;;;;22.58;58.07;98315.53;4978932;28;20116;-89
2023/08/30 03:59:27;;;;;;;13.52;7.40;;;;;;;22.50;58.87;98320.13;4962507;28;20042;-89
2023/08/30 04:01:52;;;;;;;17.15;7.97;;;;;;;22.39;58.51;98313.72;4986030;28;20034;-90
2023/08/30 04:04:18;;;;;;;11.60;7.40;;;;;;;22.34;59.10;98320.31;4965776;28;20117;-89
2023/08/30 04:06:44;;;;;;;15.07;6.32;;;;;;;22.43;59.49;98341.97;4961943;28;20409;-90
2023/08/30 04:09:10;;;;;;;12.48;6.72;;;;;;;22.47;59.17;98353.78;4964065;28;20026;-89
2023/08/30 04:11:35;;;;;;;13.52;7.03;;;;;;;22.43;59.21;98346.69;4963329;28;20476;-89
2023/08/30 04:14:01;;;;;;;17.13;7.63;;;;;;;22.44;59.81;98362.00;4961488;28;20114;-89
2023/08/30 04:16:26;;;;;;;12.00;7.10;;;;;;;22.28;59.90;98332.78;4964506;28;20026;-89
2023/08/30 04:18:52;;;;;;;14.15;7.35;;;;;;;22.33;60.00;98337.16;4964219;28;20046;-90
2023/08/30 04:21:17;;;;;;;13.50;7.65;;;;;;;22.34;59.67;98339.53;4954079;28;20026;-89
2023/08/30 04:23:52;;;;;;;20.05;6.95;;;;;;;22.41;59.43;98333.34;4961606;28;20031;-89
2023/08/30 04:26:17;;;;;;;12.10;7.60;;;;;;;22.35;60.41;98338.38;4968787;28;20030;-89
2023/08/30 04:28:43;;;;;;;15.45;7.20;;;;;;;22.35;60.10;98341.13;4961985;28;20125;-89
2023/08/30 04:31:08;;;;;;;14.45;7.20;;;;;;;22.46;59.83;98357.72;4955751;28;20034;-88
2023/08/30 04:33:34;;;;;;;15.95;7.45;;;;;;;22.39;60.43;98363.91;4960082;28;20011;-89
2023/08/30 04:36:00;;;;;;;17.13;7.13;;;;;;;22.32;60.33;98350.06;4948341;28;20427;-88
2023/08/30 04:38:26;;;;;;;12.15;6.38;;;;;;;22.44;59.04;98346.31;4945991;28;20022;-87
2023/08/30 04:40:56;;;;;;;8.27;5.28;;;;;;;22.80;57.41;98372.22;4944981;28;20027;-88
2023/08/30 04:43:22;;;;;;;14.55;6.43;;;;;;;22.88;57.28;98369.56;4984384;28;20674;-88
2023/08/30 04:45:48;;;;;;;15.60;7.03;;;;;;;22.85;57.30;98351.09;4970111;28;20042;-88
2023/08/30 04:48:14;;;;;;;16.95;6.97;;;;;;;22.80;59.46;98355.75;4957757;28;20030;-89
2023/08/30 04:50:39;;;;;;;10.55;6.30;;;;;;;22.85;59.19;98384.84;4957618;28;20038;-87
2023/08/30 04:53:05;;;;;;;12.52;7.05;;;;;;;22.74;60.07;98381.97;4973706;28;20023;-88
2023/08/30 04:55:30;;;;;;;11.13;7.65;;;;;;;22.79;60.01;98372.59;4944591;28;20034;-88
2023/08/30 04:57:56;;;;;;;13.88;7.50;;;;;;;22.82;59.71;98380.09;4961319;28;20093;-89
2023/08/30 05:00:21;;;;;;;20.70;7.38;;;;;;;22.86;59.66;98378.16;4946724;28;20018;-91
2023/08/30 05:02:47;;;;;;;12.73;6.47;;;;;;;22.98;57.95;98377.13;4961323;28;20114;-92
2023/08/30 05:05:18;;;;;;;11.25;5.25;;;;;;;23.09;56.99;98391.78;4946257;28;20026;-92
2023/08/30 05:07:44;;;;;;;9.63;5.20;;;;;;;23.05;56.82;98362.72;4948962;28;20027;-94
2023/08/30 05:10:09;;;;;;;9.48;5.43;;;;;;;23.19;56.23;98371.88;4967264;28;20354;-93
2023/08/30 05:12:35;;;;;;;14.18;7.15;;;;;;;23.19;56.29;98369.13;4970292;28;20037;-92
2023/08/30 05:15:03;;;;;;;12.27;5.32;;;;;;;23.35;56.12;98373.59;4966672;28;20030;-92
2023/08/30 05:17:29;;;;;;;6.45;5.05;;;;;;;23.38;55.32;98367.34;4968101;28;20035;-94
2023/08/30 05:20:04;;;;;;;11.68;8.05;;;;;;;23.52;55.11;98374.94;4951392;28;20098;-92
2023/08/30 05:22:32;;;;;;;10.77;5.55;;;;;;;23.47;55.41;98378.81;4950220;28;20065;-94
2023/08/30 05:24:58;;;;;;;11.02;5.32;;;;;;;23.58;55.12;98385.19;4942066;28;20038;-92
2023/08/30 05:45:04;;;;;;;18.25;6.65;;;;;;;24.18;53.63;98413.56;4952639;29;20038;-89
2023/08/30 05:47:30;;;;;;;12.63;6.13;;;;;;;24.14;53.44;98401.75;4970787;28;20038;-90
2023/08/30 05:49:57;;;;;;;20.80;10.98;;;;;;;24.11;53.87;98386.78;4933789;28;20035;-90
2023/08/30 05:52:26;;;;;;;9.40;6.32;;;;;;;24.26;53.18;98395.13;4964662;28;20051;-90
2023/08/30 05:54:52;;;;;;;10.60;5.93;;;;;;;24.27;53.21;98393.97;4934587;28;20043;-93
2023/08/30 05:57:18;;;;;;;9.57;5.28;;;;;;;24.25;53.14;98407.31;4934060;28;20042;-92
2023/08/30 05:59:44;;;;;;;13.02;5.60;;;;;;;24.29;52.71;98417.16;4930660;28;20019;-89
2023/08/30 06:02:10;;;;;;;10.25;5.50;;;;;;;24.44;52.55;98425.50;4950273;28;20101;-88
2023/08/30 06:04:35;;;;;;;11.00;6.22;;;;;;;24.47;52.90;98422.00;4929849;28;20129;-89
2023/08/30 06:07:01;;;;;;;13.90;6.55;;;;;;;24.24;53.71;98406.53;4930560;28;20058;-88
2023/08/30 06:16:16;;;;;;;11.02;5.78;;;;;;;24.39;53.30;98399.91;4959011;28;20465;-90
2023/08/30 06:18:41;;;;;;;10.50;5.40;;;;;;;24.41;52.61;98399.53;4935247;28;20047;-91
2023/08/30 06:21:09;;;;;;;15.32;5.82;;;;;;;24.76;51.82;98426.47;4963876;28;20033;-91
2023/08/30 06:23:40;;;;;;;26.95;6.38;;;;;;;24.74;52.52;98411.53;4953242;28;20023;-93
2023/08/30 06:26:20;;;;;;;9.98;5.18;;;;;;;24.70;52.86;98402.47;4953353;28;20125;-91
2023/08/30 06:28:46;;;;;;;7.78;5.00;;;;;;;24.62;52.51;98398.88;4971043;28;20023;-93
2023/08/30 06:31:21;;;;;;;8.00;4.55;;;;;;;24.80;51.42;98397.00;4964646;28;20037;-90
2023/08/30 06:33:48;;;;;;;9.48;6.10;;;;;;;24.79;52.13;98389.13;4948440;28;20065;-89
2023/08/30 06:36:15;;;;;;;9.38;6.40;;;;;;;24.88;51.69;98395.06;4948375;28;20042;-89
2023/08/30 06:38:47;;;;;;;13.75;6.60;;;;;;;24.88;52.28;98400.56;4949393;28;20031;-90
2023/08/30 06:41:12;;;;;;;11.88;6.55;;;;;;;25.00;52.64;98421.44;4950282;28;20117;-91
2023/08/30 06:43:40;;;;;;;14.70;6.57;;;;;;;25.16;52.03;98413.63;4946322;28;20066;-91
2023/08/30 06:46:25;;;;;;;23.80;6.57;;;;;;;25.14;51.88;98393.94;4956760;28;20039;-90
2023/08/30 06:48:58;;;;;;;10.13;5.30;;;;;;;25.18;50.75;98380.97;4944836;28;20039;-93
2023/08/30 06:51:26;;;;;;;8.07;5.10;;;;;;;25.24;50.79;98372.34;4940017;29;20035;-91
2023/08/30 06:53:51;;;;;;;8.82;5.38;;;;;;;25.47;50.94;98394.03;4948373;29;20059;-90
2023/08/30 06:56:17;;;;;;;11.07;6.05;;;;;;;25.71;50.26;98411.75;4949519;29;20015;-90
2023/08/30 06:58:45;;;;;;;11.07;5.90;;;;;;;25.64;50.31;98398.75;4930808;29;20035;-90
2023/08/30 07:02:07;;;;;;;14.25;5.57;;;;;;;25.58;49.74;98384.56;4940633;28;20059;-90
2023/08/30 07:07:28;;;;;;;10.82;5.30;;;;;;;25.42;50.33;98395.19;4906100;29;20065;-93
2023/08/30 07:10:00;;;;;;;10.65;6.78;;;;;;;25.63;49.56;98404.66;4945055;29;20043;-94
2023/08/30 07:12:48;;;;;;;128.85;96.63;;;;;;;25.66;49.71;98379.06;4970347;29;20054;-91
2023/08/30 07:15:14;;;;;;;10.07;6.97;;;;;;;25.65;50.11;98389.31;4961792;28;20486;-89
2023/08/30 07:17:47;;;;;;;26.85;19.45;;;;;;;25.84;49.12;98382.59;4944868;28;20038;-90
2023/08/30 07:20:13;;;;;;;11.02;5.60;;;;;;;25.98;49.02;98371.59;4944551;28;20061;-91
2023/08/30 07:22:42;;;;;;;15.32;6.38;;;;;;;26.15;48.40;98391.28;4937583;28;20070;-91
2023/08/30 07:25:10;;;;;;;12.35;5.90;;;;;;;26.17;49.57;98400.72;4916307;29;20024;-91
2023/08/30 07:27:38;;;;;;;7.55;5.15;;;;;;;26.18;47.57;98384.94;4893819;29;20143;-95
2023/08/30 07:30:07;;;;;;;8.05;5.03;;;;;;;26.26;48.07;98410.56;4893662;29;20040;-93
2023/08/30 07:32:37;;;;;;;8.13;5.15;;;;;;;26.14;47.49;98401.50;4894525;29;20031;-93
2023/08/30 07:35:15;;;;;;;10.48;5.00;;;;;;;26.23;48.07;98401.13;4908386;29;20044;-91
2023/08/30 07:37:46;;;;;;;11.40;7.25;;;;;;;26.38;48.32;98399.88;4891139;29;20043;-96
2023/08/30 07:40:38;;;;;;;9.50;5.15;;;;;;;26.49;47.76;98388.03;4907892;29;20037;-94
2023/08/30 07:43:51;;;;;;;35.72;25.15;;;;;;;26.86;46.34;98408.81;4905945;29;20036;-95
2023/08/30 07:46:31;;;;;;;;;;;;;;;;;;;;;
2023/08/30 07:59:03;;;;;;;9.63;5.63;;;;;;;27.05;45.72;98386.22;4874150;29;20060;-89
2023/08/30 08:01:29;;;;;;;7.70;5.53;;;;;;;27.00;45.34;98365.31;4854866;29;20033;-89
2023/08/30 08:03:54;;;;;;;11.82;5.65;;;;;;;27.16;45.16;98359.28;4901822;29;20063;-89
2023/08/30 08:06:27;;;;;;;13.00;5.32;;;;;;;27.26;45.08;98367.97;4914588;29;20031;-92
2023/08/30 08:09:52;;;;;;;;;;;;;;;;;;;;;
2023/08/30 08:12:27;;;;;;;11.73;5.50;;;;;;;27.45;45.32;98374.94;4974672;28;20094;-92
2023/08/30 08:14:56;;;;;;;9.18;6.03;;;;;;;27.59;44.86;98367.28;4924493;28;20034;-92
2023/08/30 08:17:29;;;;;;;10.85;5.18;;;;;;;27.70;44.28;98363.66;4950780;28;20026;-92
2023/08/30 08:20:05;;;;;;;10.07;5.93;;;;;;;27.87;44.09;98376.59;4935717;28;20050;-92
2023/08/30 08:22:57;;;;;;;7.95;5.53;;;;;;;27.75;44.39;98371.53;4912436;29;20044;-93
2023/08/30 08:25:45;;;;;;;9.10;4.60;;;;;;;27.53;43.59;98380.00;4893793;29;20204;-91
2023/08/30 08:28:11;;;;;;;12.95;5.15;;;;;;;27.55;44.35;98391.44;4898181;29;20171;-92
2023/08/30 08:30:42;;;;;;;9.20;5.13;;;;;;;27.45;43.47;98369.41;4915616;29;20052;-93
2023/08/30 08:33:36;;;;;;;8.88;5.35;;;;;;;27.70;43.84;98389.34;4908092;29;20103;-92
2023/08/30 08:36:03;;;;;;;9.70;5.10;;;;;;;27.84;43.62;98360.00;4911017;29;20056;-92
2023/08/30 08:38:34;;;;;;;9.80;5.30;;;;;;;27.95;43.22;98367.03;4912037;29;20093;-92
2023/08/30 08:41:09;;;;;;;8.88;5.38;;;;;;;27.97;43.76;98359.09;4894479;29;20475;-89
2023/08/30 08:43:36;;;;;;;8.48;6.00;;;;;;;28.16;43.33;98366.03;4911325;29;20036;-89
2023/08/30 08:46:08;;;;;;;8.95;5.95;;;;;;;28.02;43.28;98355.09;4926306;29;20040;-90
2023/08/30 08:48:35;;;;;;;8.45;4.97;;;;;;;28.24;43.01;98371.47;4903148;29;20051;-88
2023/08/30 08:51:01;;;;;;;14.27;5.28;;;;;;;28.38;42.69;98369.31;4906883;29;20028;-89
2023/08/30 08:53:27;;;;;;;7.53;5.22;;;;;;;28.17;42.47;98344.66;4935655;28;20082;-90
2023/08/30 09:01:55;;;;;;;8.18;5.18;;;;;;;28.44;42.64;98353.03;5306539;22;20054;-96
2023/08/30 09:04:21;;;;;;;9.60;5.57;;;;;;;28.58;42.27;98347.38;4988834;28;20160;-96
2023/08/30 09:06:54;;;;;;;6.80;5.22;;;;;;;28.79;42.15;98362.91;5004166;28;20030;-96
2023/08/30 09:09:35;;;;;;;9.02;4.95;;;;;;;28.77;40.75;98359.00;4983543;28;20051;-96
2023/08/30 09:12:43;;;;;;;10.82;5.13;;;;;;;29.04;40.11;98356.25;4999535;28;20104;-96
2023/08/30 09:15:36;;;;;;;5.82;4.88;;;;;;;29.09;39.47;98352.22;5013328;28;20039;-96
2023/08/30 09:18:27;;;;;;;8.45;4.88;;;;;;;29.02;40.57;98337.25;4998111;28;20077;-96
2023/08/30 09:21:09;;;;;;;6.90;4.60;;;;;;;29.26;40.16;98334.56;4977413;28;20062;-96
2023/08/30 09:23:41;;;;;;;7.00;4.70;;;;;;;29.35;39.62;98334.81;4958178;28;20030;-96
2023/08/30 09:26:08;;;;;;;8.18;4.28;;;;;;;29.36;38.78;98336.38;4971563;28;20102;-96
2023/08/30 09:28:56;;;;;;;24.40;18.55;;;;;;;29.44;39.31;98331.50;4986513;28;20046;-96
2023/08/30 09:31:24;;;;;;;63.78;52.05;;;;;;;29.55;39.79;98329.34;4963065;28;20133;-96
2023/08/30 09:34:10;;;;;;;20.45;11.20;;;;;;;29.55;39.59;98334.09;4946696;28;20066;-96
2023/08/30 09:36:42;;;;;;;9.50;5.88;;;;;;;29.40;39.35;98312.13;4972310;28;20057;-96
2023/08/30 09:42:06;;;;;;;6.38;4.60;;;;;;;29.46;40.21;98311.66;5175792;22;20050;-96
2023/08/30 09:57:33;;;;;;;8.35;4.78;;;;;;;30.29;39.24;98292.34;5530864;23;20487;-95
2023/08/30 10:12:05;;;;;;;;;;;;;;;;;;;;;
2023/08/30 10:40:25;;;;;;;8.70;5.28;;;;;;;30.64;38.38;98265.00;4939881;28;20052;-96
2023/08/30 10:43:30;;;;;;;8.90;5.18;;;;;;;30.58;38.50;98263.94;4955893;29;20534;-94
2023/08/30 10:46:17;;;;;;;9.05;4.60;;;;;;;30.74;38.21;98257.66;4921474;29;20047;-96
2023/08/30 10:48:58;;;;;;;;;;;;;;;;;;;;;
2023/08/30 10:51:54;;;;;;;11.27;4.88;;;;;;;30.90;38.03;98248.56;4881556;29;20136;-95
2023/08/30 10:54:21;;;;;;;6.45;4.40;;;;;;;30.95;37.14;98246.03;4874291;29;20087;-95
2023/08/30 10:57:01;;;;;;;10.18;4.60;;;;;;;30.89;36.93;98247.78;4889086;29;20032;-95
2023/08/30 10:59:27;;;;;;;7.53;4.40;;;;;;;30.82;36.66;98234.03;4888504;29;20029;-96
2023/08/30 11:01:53;;;;;;;7.63;4.57;;;;;;;30.85;37.34;98232.38;4876223;29;20485;-96
2023/08/30 11:04:23;;;;;;;7.53;4.63;;;;;;;30.80;37.07;98242.03;4892760;29;20032;-96
2023/08/30 11:06:54;;;;;;;6.70;4.63;;;;;;;30.92;36.86;98237.78;4879674;29;20073;-96
2023/08/30 11:09:27;;;;;;;11.20;4.85;;;;;;;31.00;37.57;98234.41;4901347;29;20047;-96
2023/08/30 11:11:56;;;;;;;8.15;4.57;;;;;;;30.85;37.68;98221.25;4883490;29;20067;-95
2023/08/30 11:14:39;;;;;;;8.30;5.13;;;;;;;30.95;37.75;98223.81;4884438;29;20072;-95
2023/08/30 11:17:21;;;;;;;14.05;5.07;;;;;;;31.11;37.40;98217.47;4903819;29;20055;-96
2023/08/30 11:20:36;;;;;;;6.43;4.72;;;;;;;31.25;37.91;98223.88;4907063;29;20040;-96
2023/08/30 11:23:28;;;;;;;11.65;5.18;;;;;;;31.09;37.09;98206.00;4939719;29;20036;-96
2023/08/30 11:26:18;;;;;;;;;;;;;;;;;;;;;
2023/08/30 11:29:07;;;;;;;8.95;4.72;;;;;;;31.24;36.91;98208.41;4922926;29;20055;-96
2023/08/30 11:31:33;;;;;;;8.30;4.47;;;;;;;31.31;35.84;98205.44;4917043;29;20040;-96
2023/08/30 11:34:04;;;;;;;7.60;4.68;;;;;;;31.49;35.98;98207.78;4915412;29;20048;-96
2023/08/30 11:36:37;;;;;;;8.95;4.80;;;;;;;31.53;36.04;98200.91;4895678;29;20109;-96
2023/08/30 11:39:04;;;;;;;5.85;4.60;;;;;;;31.61;35.67;98190.34;4880724;29;20060;-96
2023/08/30 11:41:57;;;;;;;;;;;;;;;;;;;;;
2023/08/30 11:44:57;;;;;;;;;;;;;;;;;;;;;
2023/08/30 11:53:00;;;;;;;11.07;5.65;;;;;;;31.84;34.88;98182.97;5364356;23;20109;-96
2023/08/30 11:55:41;;;;;;;7.25;4.47;;;;;;;31.98;34.82;98186.13;5352165;23;20087;-96
2023/08/30 11:58:35;;;;;;;6.65;4.63;;;;;;;32.05;35.03;98176.03;4968115;28;20027;-96
2023/08/30 12:01:12;;;;;;;;;;;;;;;;;;;;;
2023/08/30 12:03:49;;;;;;;6.82;4.47;;;;;;;32.13;35.09;98171.81;4984678;28;20095;-96
2023/08/30 12:06:14;;;;;;;11.70;5.68;;;;;;;32.25;34.96;98175.81;4948251;29;20039;-96
2023/08/30 12:09:27;;;;;;;;;;;;;;;;;;;;;
2023/08/30 12:14:47;;;;;;;10.15;4.82;;;;;;;32.30;34.58;98176.03;5240970;23;20063;-96
2023/08/30 12:17:17;;;;;;;8.90;4.50;;;;;;;32.12;34.43;98153.50;4952873;28;20068;-96
2023/08/30 12:20:47;;;;;;;8.43;4.82;;;;;;;32.21;34.58;98153.66;4934324;29;20047;-96
2023/08/30 12:23:33;;;;;;;15.18;5.93;;;;;;;32.40;34.59;98165.78;4909736;29;20044;-96
2023/08/30 12:26:10;;;;;;;5.97;4.47;;;;;;;32.40;34.41;98172.13;4894904;29;20120;-96
2023/08/30 12:28:47;;;;;;;6.78;4.32;;;;;;;32.36;34.34;98140.81;4882352;29;20051;-96
2023/08/30 12:31:31;;;;;;;10.52;4.40;;;;;;;32.48;34.50;98144.84;4900039;29;20041;-95
2023/08/30 12:36:36;;;;;;;5.85;4.30;;;;;;;32.27;33.93;98126.00;5233889;23;20063;-96
2023/08/30 12:39:04;;;;;;;6.68;4.60;;;;;;;32.46;33.80;98152.06;4950736;28;20055;-96
2023/08/30 12:41:43;;;;;;;8.50;4.40;;;;;;;32.33;33.85;98129.78;4952940;29;20047;-96
2023/08/30 12:44:20;;;;;;;6.18;3.92;;;;;;;32.30;33.59;98134.25;4951905;29;20056;-96
2023/08/30 12:47:13;;;;;;;8.02;4.85;;;;;;;32.39;33.84;98139.91;4951514;28;20059;-96
2023/08/30 12:50:15;;;;;;;6.32;4.40;;;;;;;32.41;34.15;98126.31;4973164;29;20046;-96
2023/08/30 12:52:52;;;;;;;6.38;4.40;;;;;;;32.39;33.49;98106.47;4958486;28;20054;-96
2023/08/30 12:55:19;;;;;;;8.43;4.50;;;;;;;32.59;33.79;98116.66;4962679;29;20159;-96
2023/08/30 12:57:56;;;;;;;8.15;4.22;;;;;;;32.46;33.65;98111.06;4947328;29;20043;-96
2023/08/30 13:00:44;;;;;;;26.38;15.40;;;;;;;32.53;33.89;98113.59;4932195;29;20042;-95
2023/08/30 13:03:12;;;;;;;7.45;4.10;;;;;;;32.48;33.46;98105.03;4909022;29;20048;-96
2023/08/30 13:05:41;;;;;;;12.95;5.53;;;;;;;32.37;34.51;98083.88;4912130;29;20528;-96
2023/08/30 13:08:07;;;;;;;8.57;4.68;;;;;;;32.36;34.15;98070.41;4890258;29;20414;-96
2023/08/30 13:10:32;;;;;;;28.33;21.45;;;;;;;32.33;34.09;98057.34;4879438;29;20041;-96
2023/08/30 13:13:13;;;;;;;9.13;4.82;;;;;;;32.36;34.31;98079.53;4889529;29;20534;-96
2023/08/30 13:15:44;;;;;;;9.60;4.82;;;;;;;32.12;33.96;98058.81;4875501;29;20040;-95
2023/08/30 13:18:38;;;;;;;7.15;4.20;;;;;;;32.23;33.86;98081.56;4880464;29;20037;-95
2023/08/30 13:21:23;;;;;;;11.20;4.18;;;;;;;32.05;34.54;98059.06;4895391;29;20036;-96
2023/08/30 13:24:21;;;;;;;7.32;4.53;;;;;;;31.92;34.15;98079.31;4913614;29;20112;-96
2023/08/30 13:29:47;;;;;;;;;;;;;;;;;;;;;
2023/08/30 13:32:13;;;;;;;7.93;4.40;;;;;;;31.58;35.54;98040.97;4901868;29;20059;-96
2023/08/30 13:34:43;;;;;;;9.00;4.15;;;;;;;31.46;35.83;98075.09;4909524;29;20066;-96
2023/08/30 13:37:10;;;;;;;10.05;4.32;;;;;;;31.36;35.67;98116.66;4914102;29;20532;-95
2023/08/30 13:39:36;;;;;;;6.78;4.40;;;;;;;31.36;35.72;98193.78;4960019;29;20035;-96
2023/08/30 13:42:09;;;;;;;21.45;6.75;;;;;;;30.53;37.13;98195.78;4929285;29;20535;-95
2023/08/30 13:45:06;;;;;;;;;;;;;;;;;;;;;
2023/08/30 14:50:40;;;;;;;11.15;7.35;;;;;;;25.72;61.30;98199.03;4981911;28;20056;-95
2023/08/30 14:53:11;;;;;;;13.25;6.78;;;;;;;25.72;61.29;98185.25;4983408;28;20082;-96
2023/08/30 14:55:37;;;;;;;;;;;;;;;25.80;64.29;98208.88;4969150;28;20022;-95
2023/08/30 14:58:09;;;;;;;14.30;6.53;;;;;;;25.71;63.21;98194.72;4984004;28;19969;-95
2023/08/30 15:00:34;;;;;;;12.68;7.15;;;;;;;25.67;64.09;98176.59;4949643;28;20030;-94